createdAt,value
2023-10-20T00:00:00.828Z,26.60
2023-10-20T00:02:29.167Z,29.25
2023-10-20T00:04:56.338Z,27.10
2023-10-20T00:10:05.093Z,27.13
2023-10-20T00:12:32.235Z,29.63
2023-10-20T00:14:59.781Z,30.15
2023-10-20T00:17:26.788Z,28.27
2023-10-20T00:19:54.463Z,31.17
2023-10-20T00:22:21.398Z,30.50
2023-10-20T00:24:48.254Z,28.35
2023-10-20T00:27:15.179Z,29.30
2023-10-20T00:29:42.358Z,29.35
2023-10-20T00:32:11.780Z,26.48
2023-10-20T00:34:39.081Z,27.98
2023-10-20T00:37:06.053Z,28.40
2023-10-20T00:39:35.773Z,29.52
2023-10-20T00:42:03.408Z,29.33
2023-10-20T00:44:30.461Z,27.45
2023-10-20T00:46:58.115Z,28.98
2023-10-20T00:49:25.067Z,29.70
2023-10-20T00:51:51.988Z,28.73
2023-10-20T00:54:18.988Z,27.23
2023-10-20T00:56:46.903Z,29.50
2023-10-20T00:59:13.901Z,24.70
2023-10-20T01:01:40.818Z,26.42
2023-10-20T01:04:08.047Z,24.58
2023-10-20T01:06:37.665Z,27.25
2023-10-20T01:09:05.016Z,28.77
2023-10-20T01:11:32.432Z,25.45
2023-10-20T01:13:59.488Z,26.77
2023-10-20T01:16:26.516Z,26.42
2023-10-20T01:18:53.553Z,27.33
2023-10-20T01:21:20.668Z,27.88
2023-10-20T01:23:47.501Z,30.08
2023-10-20T01:26:14.388Z,30.70
2023-10-20T01:28:41.497Z,25.63
2023-10-20T01:31:08.499Z,24.55
2023-10-20T01:33:35.839Z,27.35
2023-10-20T01:36:02.833Z,28.73
2023-10-20T01:38:31.014Z,29.20
2023-10-20T01:40:57.954Z,27.30
2023-10-20T01:43:25.060Z,30.48
2023-10-20T01:45:51.922Z,27.65
2023-10-20T01:48:18.819Z,26.40
2023-10-20T01:50:46.057Z,28.40
2023-10-20T01:53:13.207Z,26.95
2023-10-20T01:55:50.733Z,27.55
2023-10-20T01:58:21.188Z,26.35
2023-10-20T02:00:52.187Z,29.98
2023-10-20T02:03:21.035Z,26.88
2023-10-20T02:05:48.225Z,28.77
2023-10-20T02:08:15.958Z,27.95
2023-10-20T02:10:46.373Z,29.23
2023-10-20T02:13:13.296Z,26.63
2023-10-20T02:15:45.658Z,27.17
2023-10-20T02:18:12.560Z,25.70
2023-10-20T02:20:39.476Z,26.35
2023-10-20T02:23:06.357Z,26.63
2023-10-20T02:25:33.253Z,26.38
2023-10-20T02:28:00.149Z,26.88
2023-10-20T02:30:27.027Z,29.92
2023-10-20T02:32:55.699Z,28.40
2023-10-20T02:35:22.728Z,27.77
2023-10-20T02:37:50.426Z,26.98
2023-10-20T02:40:17.436Z,28.38
2023-10-20T02:42:45.221Z,30.98
2023-10-20T02:45:12.462Z,28.17
2023-10-20T02:47:39.533Z,29.58
2023-10-20T02:50:07.898Z,30.25
2023-10-20T02:52:34.761Z,27.90
2023-10-20T02:55:01.861Z,30.77
2023-10-20T02:57:28.846Z,29.17
2023-10-20T02:59:56.057Z,30.80
2023-10-20T03:02:23.769Z,28.80
2023-10-20T03:04:54.798Z,27.40
2023-10-20T03:07:25.871Z,31.00
2023-10-20T03:09:53.094Z,31.03
2023-10-20T03:12:19.991Z,29.98
2023-10-20T03:14:47.387Z,28.90
2023-10-20T03:17:15.876Z,31.88
2023-10-20T03:19:44.608Z,30.25
2023-10-20T03:22:13.866Z,30.80
2023-10-20T03:24:43.551Z,27.77
2023-10-20T03:27:10.519Z,28.80
2023-10-20T03:29:37.506Z,29.63
2023-10-20T03:32:04.633Z,33.88
2023-10-20T03:34:34.784Z,28.98
2023-10-20T03:37:02.165Z,27.67
2023-10-20T03:39:29.181Z,30.85
2023-10-20T03:41:57.237Z,30.85
2023-10-20T03:44:24.122Z,30.85
2023-10-20T03:46:52.357Z,29.75
2023-10-20T03:49:19.984Z,28.75
2023-10-20T03:51:53.056Z,31.10
2023-10-20T03:54:20.580Z,30.20
2023-10-20T03:56:47.950Z,33.13
2023-10-20T03:59:16.189Z,27.98
2023-10-20T04:01:43.434Z,30.02
2023-10-20T04:04:12.997Z,29.90
2023-10-20T04:06:40.560Z,28.63
2023-10-20T04:09:10.747Z,29.70
2023-10-20T04:11:39.009Z,28.42
2023-10-20T04:14:09.935Z,29.38
2023-10-20T04:16:43.789Z,30.23
2023-10-20T04:19:11.192Z,32.50
2023-10-20T04:21:40.555Z,31.08
2023-10-20T04:24:13.934Z,32.33
2023-10-20T04:26:42.824Z,31.27
2023-10-20T04:29:13.122Z,31.25
2023-10-20T04:32:04.454Z,32.42
2023-10-20T04:35:09.404Z,31.63
2023-10-20T04:37:54.822Z,29.30
2023-10-20T04:40:40.316Z,31.60
2023-10-20T04:43:07.188Z,32.60
2023-10-20T04:45:34.046Z,34.10
2023-10-20T04:48:21.862Z,30.77
2023-10-20T04:51:19.806Z,35.17
2023-10-20T04:53:53.325Z,29.90
2023-10-20T04:56:37.343Z,33.42
2023-10-20T04:59:11.211Z,32.70
2023-10-20T05:01:51.121Z,36.22
2023-10-20T05:04:25.619Z,32.10
2023-10-20T05:07:21.639Z,32.38
2023-10-20T05:09:55.750Z,32.90
2023-10-20T05:12:22.835Z,32.17
2023-10-20T05:14:51.204Z,32.88
2023-10-20T05:17:20.535Z,34.85
2023-10-20T05:19:50.147Z,32.78
2023-10-20T05:22:17.001Z,32.60
2023-10-20T05:24:44.250Z,33.35
2023-10-20T05:27:11.167Z,35.17
2023-10-20T05:29:39.409Z,33.88
2023-10-20T05:32:07.567Z,32.60
2023-10-20T05:34:35.658Z,34.25
2023-10-20T05:37:02.796Z,32.50
2023-10-20T05:39:29.669Z,29.85
2023-10-20T05:41:56.476Z,29.42
2023-10-20T05:44:24.383Z,36.90
2023-10-20T05:46:53.397Z,35.05
2023-10-20T05:49:22.038Z,32.30
2023-10-20T05:51:50.803Z,30.27
2023-10-20T05:54:17.697Z,31.42
2023-10-20T05:56:44.645Z,33.20
2023-10-20T05:59:11.634Z,28.83
2023-10-20T06:01:38.597Z,33.72
2023-10-20T06:04:05.776Z,29.10
2023-10-20T06:06:32.808Z,31.15
2023-10-20T06:08:59.807Z,35.70
2023-10-20T06:11:26.724Z,31.17
2023-10-20T06:13:53.596Z,28.58
2023-10-20T06:16:21.793Z,33.22
2023-10-20T06:18:48.737Z,31.45
2023-10-20T06:21:18.090Z,29.05
2023-10-20T06:23:45.869Z,31.13
2023-10-20T06:26:13.794Z,27.48
2023-10-20T06:28:40.962Z,27.60
2023-10-20T06:31:26.399Z,27.38
2023-10-20T06:34:01.246Z,31.20
2023-10-20T06:36:28.424Z,28.95
2023-10-20T06:38:55.582Z,27.85
2023-10-20T06:41:22.665Z,28.02
2023-10-20T06:43:49.996Z,28.58
2023-10-20T06:46:17.260Z,29.33
2023-10-20T06:48:44.125Z,25.92
2023-10-20T06:51:11.880Z,28.13
2023-10-20T06:53:38.772Z,24.95
2023-10-20T06:58:37.719Z,23.58
2023-10-20T07:01:07.534Z,25.38
2023-10-20T07:03:34.776Z,31.83
2023-10-20T07:06:02.286Z,30.88
2023-10-20T07:08:29.225Z,29.05
2023-10-20T07:11:05.228Z,28.50
2023-10-20T07:13:33.363Z,29.25
2023-10-20T07:16:01.471Z,27.38
2023-10-20T07:18:28.454Z,28.15
2023-10-20T07:20:58.435Z,27.77
2023-10-20T07:23:26.351Z,29.50
2023-10-20T07:25:54.316Z,26.52
2023-10-20T07:28:21.830Z,29.48
2023-10-20T07:30:48.758Z,31.58
2023-10-20T07:33:16.027Z,32.13
2023-10-20T07:35:43.789Z,37.33
2023-10-20T07:38:11.145Z,33.53
2023-10-20T07:40:38.917Z,33.50
2023-10-20T07:43:09.108Z,31.92
2023-10-20T07:45:42.508Z,31.25
2023-10-20T07:48:11.054Z,31.50
2023-10-20T07:50:38.301Z,32.03
2023-10-20T07:53:06.216Z,32.20
2023-10-20T07:55:33.086Z,30.83
2023-10-20T07:57:59.959Z,31.90
2023-10-20T08:00:26.903Z,31.80
2023-10-20T08:02:55.536Z,34.75
2023-10-20T08:05:26.413Z,28.30
2023-10-20T08:07:54.269Z,28.45
2023-10-20T08:10:23.067Z,28.38
2023-10-20T08:12:50.344Z,28.60
2023-10-20T08:15:17.904Z,29.92
2023-10-20T08:17:49.444Z,29.48
2023-10-20T08:20:17.416Z,31.40
2023-10-20T08:22:44.812Z,29.15
2023-10-20T08:25:12.306Z,31.02
2023-10-20T08:27:39.510Z,28.58
2023-10-20T08:30:07.658Z,25.48
2023-10-20T08:32:34.860Z,31.52
2023-10-20T08:35:01.738Z,25.02
2023-10-20T08:37:29.596Z,25.48
2023-10-20T08:39:56.544Z,24.98
2023-10-20T08:42:23.392Z,24.98
2023-10-20T08:44:51.283Z,22.25
2023-10-20T08:47:20.610Z,23.23
2023-10-20T08:49:48.663Z,23.77
2023-10-20T08:52:15.623Z,23.10
2023-10-20T08:54:42.589Z,21.38
2023-10-20T08:57:09.578Z,20.02
2023-10-20T08:59:37.346Z,22.52
2023-10-20T09:02:05.267Z,21.15
2023-10-20T09:04:32.347Z,23.70
2023-10-20T09:07:02.828Z,27.02
2023-10-20T09:09:30.780Z,22.58
2023-10-20T09:11:57.673Z,23.10
2023-10-20T09:14:26.248Z,22.15
2023-10-20T09:16:56.318Z,23.92
2023-10-20T09:19:23.180Z,22.15
2023-10-20T09:21:50.045Z,22.85
2023-10-20T09:24:18.472Z,21.80
2023-10-20T09:26:46.128Z,21.35
2023-10-20T09:29:15.010Z,21.77
2023-10-20T09:31:42.019Z,21.13
2023-10-20T09:34:10.432Z,21.60
2023-10-20T09:36:37.722Z,23.05
2023-10-20T09:39:09.471Z,20.10
2023-10-20T09:41:44.093Z,19.63
2023-10-20T09:44:21.516Z,23.00
2023-10-20T09:47:00.858Z,23.73
2023-10-20T09:49:28.755Z,22.65
2023-10-20T09:51:58.072Z,18.02
2023-10-20T09:54:28.471Z,19.83
2023-10-20T09:56:56.299Z,19.25
2023-10-20T09:59:25.516Z,19.23
2023-10-20T10:02:00.691Z,20.38
2023-10-20T10:04:30.276Z,16.50
2023-10-20T10:07:05.379Z,17.48
2023-10-20T10:09:39.978Z,17.50
2023-10-20T10:12:12.214Z,20.13
2023-10-20T10:14:39.258Z,21.52
2023-10-20T10:17:11.269Z,17.70
2023-10-20T10:19:52.556Z,18.35
2023-10-20T10:22:31.018Z,15.13
2023-10-20T10:25:00.959Z,18.35
2023-10-20T10:27:29.573Z,19.77
2023-10-20T10:30:06.971Z,22.10
2023-10-20T10:32:42.734Z,22.02
2023-10-20T10:35:10.829Z,15.20
2023-10-20T10:37:39.296Z,18.10
2023-10-20T10:40:17.175Z,18.13
2023-10-20T10:42:46.541Z,16.50
2023-10-20T10:45:19.810Z,18.30
2023-10-20T10:47:47.713Z,16.52
2023-10-20T10:50:16.502Z,17.85
2023-10-20T10:52:46.280Z,17.17
2023-10-20T10:55:14.541Z,15.60
2023-10-20T10:57:43.743Z,18.92
2023-10-20T11:00:14.620Z,16.75
2023-10-20T11:02:41.772Z,17.50
2023-10-20T11:05:09.031Z,16.98
2023-10-20T11:07:35.869Z,22.42
2023-10-20T11:10:04.150Z,17.88
2023-10-20T11:12:31.848Z,20.45
2023-10-20T11:15:01.090Z,17.05
2023-10-20T11:17:29.040Z,17.42
2023-10-20T11:19:57.396Z,17.88
2023-10-20T11:22:24.402Z,13.95
2023-10-20T11:24:56.056Z,15.27
2023-10-20T11:27:22.963Z,16.50
2023-10-20T11:29:58.980Z,13.07
2023-10-20T11:32:27.173Z,12.75
2023-10-20T11:34:54.462Z,12.68
2023-10-20T11:37:21.308Z,15.95
2023-10-20T11:39:48.189Z,13.05
2023-10-20T11:42:15.161Z,14.13
2023-10-20T11:44:42.131Z,11.60
2023-10-20T11:47:09.091Z,12.15
2023-10-20T11:49:36.049Z,19.45
2023-10-20T11:52:03.810Z,18.15
2023-10-20T11:54:32.793Z,14.48
2023-10-20T11:57:00.185Z,14.93
2023-10-20T11:59:27.157Z,16.17
2023-10-20T12:01:54.161Z,12.93
2023-10-20T12:04:21.101Z,14.00
2023-10-20T12:06:48.262Z,14.02
2023-10-20T12:09:18.094Z,14.15
2023-10-20T12:11:46.489Z,15.55
2023-10-20T12:14:15.414Z,12.88
2023-10-20T12:16:43.274Z,13.38
2023-10-20T12:19:10.188Z,14.98
2023-10-20T12:21:37.184Z,13.95
2023-10-20T12:24:04.756Z,12.23
2023-10-20T12:26:31.711Z,15.00
2023-10-20T12:28:58.771Z,12.73
2023-10-20T12:31:25.940Z,13.13
2023-10-20T12:33:52.951Z,14.15
2023-10-20T12:36:19.939Z,13.20
2023-10-20T12:38:47.184Z,16.35
2023-10-20T12:41:17.690Z,13.60
2023-10-20T12:43:47.104Z,13.95
2023-10-20T12:46:14.011Z,14.82
2023-10-20T12:48:41.806Z,13.82
2023-10-20T12:51:13.272Z,15.63
2023-10-20T12:53:40.848Z,14.45
2023-10-20T12:56:08.080Z,15.25
2023-10-20T12:58:36.600Z,18.35
2023-10-20T13:01:04.188Z,14.85
2023-10-20T13:03:31.260Z,15.02
2023-10-20T13:05:58.356Z,18.38
2023-10-20T13:08:25.642Z,14.82
2023-10-20T13:10:52.862Z,14.38
2023-10-20T13:13:20.107Z,12.38
2023-10-20T13:15:47.037Z,14.50
2023-10-20T13:18:14.465Z,13.25
2023-10-20T13:20:42.051Z,15.75
2023-10-20T13:23:09.213Z,15.93
2023-10-20T13:25:36.364Z,16.67
2023-10-20T13:28:05.312Z,14.50
2023-10-20T13:30:32.234Z,12.80
2023-10-20T13:33:00.849Z,12.75
2023-10-20T13:35:27.890Z,15.25
2023-10-20T13:37:54.803Z,11.73
2023-10-20T13:40:21.746Z,12.18
2023-10-20T13:42:48.833Z,13.63
2023-10-20T13:45:15.940Z,13.65
2023-10-20T13:47:42.926Z,12.77
2023-10-20T13:50:10.470Z,13.18
2023-10-20T13:52:37.570Z,12.07
2023-10-20T13:55:04.900Z,11.73
2023-10-20T13:57:31.733Z,12.82
2023-10-20T13:59:58.661Z,13.25
2023-10-20T14:02:25.804Z,12.45
2023-10-20T14:04:52.763Z,13.65
2023-10-20T14:07:19.614Z,15.23
2023-10-20T14:09:46.476Z,12.55
2023-10-20T14:12:13.326Z,14.73
2023-10-20T14:14:40.886Z,17.67
2023-10-20T14:17:07.712Z,14.40
2023-10-20T14:19:35.694Z,14.20
2023-10-20T14:22:03.456Z,14.05
2023-10-20T14:24:30.337Z,13.55
2023-10-20T14:27:00.053Z,13.90
2023-10-20T14:29:27.188Z,16.38
2023-10-20T14:31:54.236Z,13.15
2023-10-20T14:34:21.086Z,11.25
2023-10-20T14:36:47.960Z,13.50
2023-10-20T14:39:14.837Z,11.07
2023-10-20T14:41:41.711Z,13.35
2023-10-20T14:44:08.643Z,12.73
2023-10-20T14:46:35.701Z,11.75
2023-10-20T14:49:03.255Z,11.68
2023-10-20T14:51:30.257Z,11.02
2023-10-20T14:53:57.195Z,12.38
2023-10-20T14:56:24.132Z,13.48
2023-10-20T14:58:51.081Z,11.30
2023-10-20T15:01:18.001Z,13.02
2023-10-20T15:03:46.319Z,12.85
2023-10-20T15:06:14.332Z,16.80
2023-10-20T15:08:41.385Z,11.85
2023-10-20T15:11:09.011Z,12.48
2023-10-20T15:13:36.330Z,9.75
2023-10-20T15:16:06.121Z,8.63
2023-10-20T15:18:33.424Z,9.98
2023-10-20T15:21:00.478Z,9.02
2023-10-20T15:23:27.462Z,7.45
2023-10-20T15:25:54.336Z,8.38
2023-10-20T15:28:22.076Z,6.82
2023-10-20T15:30:49.329Z,5.80
2023-10-20T15:33:18.173Z,5.90
2023-10-20T15:35:47.586Z,5.43
2023-10-20T15:38:14.844Z,4.40
2023-10-20T15:40:43.262Z,4.80
2023-10-20T15:43:11.053Z,5.05
2023-10-20T15:45:39.290Z,6.88
2023-10-20T15:48:06.362Z,5.85
2023-10-20T15:50:34.049Z,4.65
2023-10-20T15:53:01.190Z,5.95
2023-10-20T15:55:28.202Z,7.03
2023-10-20T15:57:55.198Z,5.93
2023-10-20T16:00:22.389Z,5.68
2023-10-20T16:02:49.338Z,6.57
2023-10-20T16:05:16.360Z,5.03
2023-10-20T16:07:43.552Z,5.18
2023-10-20T16:10:10.714Z,5.72
2023-10-20T16:12:37.661Z,5.38
2023-10-20T16:15:07.403Z,6.85
2023-10-20T16:17:34.498Z,6.03
2023-10-20T16:20:01.468Z,5.13
2023-10-20T16:22:28.539Z,4.95
2023-10-20T16:24:55.646Z,3.88
2023-10-20T16:27:22.487Z,3.60
2023-10-20T16:29:49.463Z,4.47
2023-10-20T16:32:16.419Z,4.78
2023-10-20T16:34:43.373Z,6.07
2023-10-20T16:37:10.229Z,6.40
2023-10-20T16:39:37.429Z,5.75
2023-10-20T16:42:04.384Z,5.93
2023-10-20T16:44:31.348Z,5.70
2023-10-20T16:47:00.074Z,5.20
2023-10-20T16:49:27.098Z,6.05
2023-10-20T16:51:54.005Z,5.03
2023-10-20T16:54:20.925Z,5.05
2023-10-20T16:56:47.981Z,6.10
2023-10-20T16:59:14.945Z,5.13
2023-10-20T17:01:41.917Z,2.92
2023-10-20T17:04:09.054Z,3.97
2023-10-20T17:06:35.974Z,7.22
2023-10-20T17:09:03.314Z,5.10
2023-10-20T17:11:30.243Z,5.72
2023-10-20T17:13:57.161Z,4.93
2023-10-20T17:16:24.048Z,5.30
2023-10-20T17:18:50.976Z,4.72
2023-10-20T17:21:18.008Z,4.18
2023-10-20T17:23:44.989Z,3.58
2023-10-20T17:26:11.890Z,3.30
2023-10-20T17:28:38.808Z,3.10
2023-10-20T17:31:06.122Z,3.58
2023-10-20T17:33:33.387Z,3.67
2023-10-20T17:36:06.492Z,3.47
2023-10-20T17:38:34.276Z,3.42
2023-10-20T17:41:05.438Z,3.53
2023-10-20T17:43:33.083Z,1.75
2023-10-20T17:46:13.802Z,3.33
2023-10-20T17:48:41.308Z,3.63
2023-10-20T17:51:08.392Z,5.13
2023-10-20T17:53:35.532Z,3.25
2023-10-20T17:56:06.304Z,3.13
2023-10-20T17:58:33.697Z,2.35
2023-10-20T18:01:11.091Z,3.00
2023-10-20T18:03:40.859Z,3.35
2023-10-20T18:06:21.145Z,4.38
2023-10-20T18:08:53.395Z,4.50
2023-10-20T18:11:22.109Z,2.92
2023-10-20T18:13:51.990Z,5.20
2023-10-20T18:16:20.714Z,4.32
2023-10-20T18:18:49.803Z,3.75
2023-10-20T18:21:22.483Z,5.20
2023-10-20T18:23:49.716Z,3.45
2023-10-20T18:26:17.631Z,3.10
2023-10-20T18:28:44.975Z,4.95
2023-10-20T18:31:14.050Z,4.00
2023-10-20T18:33:41.448Z,3.50
2023-10-20T18:36:09.120Z,2.42
2023-10-20T18:38:36.068Z,3.63
2023-10-20T18:41:04.219Z,4.70
2023-10-20T18:43:31.345Z,3.47
2023-10-20T18:46:01.273Z,5.45
2023-10-20T18:48:28.908Z,3.80
2023-10-20T18:51:08.579Z,3.92
2023-10-20T18:53:36.024Z,3.00
2023-10-20T18:56:04.680Z,4.05
2023-10-20T18:58:31.955Z,6.32
2023-10-20T19:00:59.900Z,5.38
2023-10-20T19:03:27.381Z,3.75
2023-10-20T19:05:54.585Z,4.20
2023-10-20T19:08:21.633Z,5.97
2023-10-20T19:10:48.565Z,5.50
2023-10-20T19:13:16.365Z,6.05
2023-10-20T19:15:46.594Z,7.30
2023-10-20T19:18:13.580Z,6.47
2023-10-20T19:20:40.599Z,7.75
2023-10-20T19:23:09.864Z,5.40
2023-10-20T19:25:38.846Z,6.47
2023-10-20T19:28:07.851Z,9.68
2023-10-20T19:30:38.403Z,7.95
2023-10-20T19:33:05.574Z,6.78
2023-10-20T19:35:34.289Z,7.38
2023-10-20T19:38:01.247Z,6.72
2023-10-20T19:40:28.164Z,5.93
2023-10-20T19:42:57.075Z,7.80
2023-10-20T19:45:24.012Z,7.88
2023-10-20T19:47:50.972Z,7.22
2023-10-20T19:50:17.938Z,5.82
2023-10-20T19:52:44.815Z,6.88
2023-10-20T19:55:11.695Z,7.50
2023-10-20T19:57:38.513Z,8.20
2023-10-20T20:00:06.541Z,6.85
2023-10-20T20:02:39.875Z,7.32
2023-10-20T20:05:07.181Z,9.25
2023-10-20T20:07:34.120Z,8.90
2023-10-20T20:10:01.058Z,8.73
2023-10-20T20:12:27.943Z,8.88
2023-10-20T20:14:54.820Z,6.72
2023-10-20T20:17:21.732Z,7.68
2023-10-20T20:19:48.634Z,7.13
2023-10-20T20:22:15.495Z,5.80
2023-10-20T20:24:42.565Z,5.63
2023-10-20T20:27:09.873Z,6.47
2023-10-20T20:29:37.157Z,6.30
2023-10-20T20:32:06.603Z,6.82
2023-10-20T20:34:34.611Z,6.07
2023-10-20T20:37:01.490Z,4.90
2023-10-20T20:39:29.042Z,4.93
2023-10-20T20:41:56.461Z,6.25
2023-10-20T20:44:23.469Z,7.18
2023-10-20T20:46:50.465Z,7.03
2023-10-20T20:49:17.484Z,6.13
2023-10-20T20:51:47.487Z,4.70
2023-10-20T20:54:14.350Z,5.45
2023-10-20T20:56:41.663Z,5.75
2023-10-20T20:59:09.517Z,5.82
2023-10-20T21:01:36.426Z,7.38
2023-10-20T21:04:03.393Z,5.60
2023-10-20T21:06:30.517Z,5.78
2023-10-20T21:08:57.978Z,5.53
2023-10-20T21:11:24.953Z,3.67
2023-10-20T21:13:52.478Z,3.25
2023-10-20T21:16:19.539Z,4.80
2023-10-20T21:18:46.504Z,8.93
2023-10-20T21:21:15.024Z,5.07
2023-10-20T21:23:45.804Z,5.45
2023-10-20T21:26:13.363Z,5.53
2023-10-20T21:28:40.201Z,6.70
2023-10-20T21:31:08.351Z,4.65
2023-10-20T21:33:35.691Z,3.72
2023-10-20T21:36:06.251Z,3.92
2023-10-20T21:38:33.730Z,4.03
2023-10-20T21:41:01.493Z,6.22
2023-10-20T21:43:28.616Z,3.72
2023-10-20T21:45:56.770Z,3.63
2023-10-20T21:48:25.174Z,4.10
2023-10-20T21:51:00.727Z,3.67
2023-10-20T21:53:29.812Z,3.10
2023-10-20T21:56:10.045Z,3.55
2023-10-20T21:58:40.458Z,3.10
2023-10-20T22:01:10.159Z,3.92
2023-10-20T22:03:39.437Z,3.25
2023-10-20T22:06:07.981Z,3.63
2023-10-20T22:08:35.340Z,4.05
2023-10-20T22:11:02.264Z,4.72
2023-10-20T22:13:29.195Z,4.78
2023-10-20T22:15:56.756Z,5.60
2023-10-20T22:18:23.674Z,5.38
2023-10-20T22:20:50.654Z,5.15
2023-10-20T22:23:19.475Z,5.15
2023-10-20T22:25:46.426Z,5.40
2023-10-20T22:28:13.333Z,4.47
2023-10-20T22:30:40.255Z,3.10
2023-10-20T22:33:07.177Z,4.60
2023-10-20T22:35:34.165Z,4.40
2023-10-20T22:38:01.094Z,3.60
2023-10-20T22:40:27.915Z,6.47
2023-10-20T22:42:55.116Z,4.70
2023-10-20T22:45:22.000Z,3.67
2023-10-20T22:47:48.949Z,4.07
2023-10-20T22:50:19.303Z,5.97
2023-10-20T22:52:49.720Z,4.25
2023-10-20T22:55:17.423Z,12.88
2023-10-20T22:57:44.296Z,2.72
2023-10-20T23:00:11.929Z,5.63
2023-10-20T23:02:42.142Z,4.85
2023-10-20T23:05:10.713Z,5.82
2023-10-20T23:07:37.788Z,4.85
2023-10-20T23:10:05.635Z,2.50
2023-10-20T23:12:34.131Z,3.45
2023-10-20T23:15:01.703Z,3.20
2023-10-20T23:17:32.082Z,4.15
2023-10-20T23:19:59.008Z,4.68
2023-10-20T23:22:26.306Z,5.22
2023-10-20T23:24:53.959Z,3.33
2023-10-20T23:27:20.843Z,3.97
2023-10-20T23:29:48.034Z,2.90
2023-10-20T23:32:14.943Z,4.82
2023-10-20T23:34:42.021Z,3.08
2023-10-20T23:37:09.073Z,3.03
2023-10-20T23:39:36.950Z,4.80
2023-10-20T23:42:05.226Z,3.30
2023-10-20T23:44:32.669Z,4.25
2023-10-20T23:47:00.183Z,6.38
2023-10-20T23:49:27.256Z,3.38
2023-10-20T23:51:54.783Z,4.40
2023-10-20T23:54:21.801Z,3.20
2023-10-20T23:56:48.683Z,4.22
2023-10-20T23:59:15.566Z,3.63
